createdAt,value
2019-01-09T00:01:13.448Z,98792.70
2019-01-09T00:03:41.069Z,98789.59
2019-01-09T00:06:08.985Z,98788.26
2019-01-09T00:08:36.610Z,98786.58
2019-01-09T00:11:04.225Z,98790.29
2019-01-09T00:13:32.175Z,98786.54
2019-01-09T00:15:59.794Z,98786.67
2019-01-09T00:18:27.703Z,98785.12
2019-01-09T00:20:55.689Z,98793.20
2019-01-09T00:23:23.317Z,98784.44
2019-01-09T00:25:50.938Z,98784.91
2019-01-09T00:28:18.573Z,98790.78
2019-01-09T00:30:46.526Z,98786.73
2019-01-09T00:33:14.502Z,98787.56
2019-01-09T00:35:42.466Z,98787.17
2019-01-09T00:38:10.435Z,98784.98
2019-01-09T00:40:38.052Z,98794.96
2019-01-09T00:43:05.964Z,98793.50
2019-01-09T00:45:33.587Z,98791.58
2019-01-09T00:48:01.211Z,98790.45
2019-01-09T00:50:29.156Z,98794.48
2019-01-09T00:52:57.125Z,98795.65
2019-01-09T00:55:24.995Z,98789.28
2019-01-09T00:57:52.621Z,98791.14
2019-01-09T01:00:20.238Z,98789.49
2019-01-09T01:02:48.186Z,98794.48
2019-01-09T01:05:16.161Z,98796.84
2019-01-09T01:07:43.791Z,98793.54
2019-01-09T01:10:11.990Z,98791.35
2019-01-09T01:12:39.605Z,98792.95
2019-01-09T01:15:07.541Z,98791.23
2019-01-09T01:17:35.159Z,98807.25
2019-01-09T01:20:03.053Z,98801.17
2019-01-09T01:22:30.665Z,98806.85
2019-01-09T01:24:58.583Z,98804.02
2019-01-09T01:27:26.556Z,98804.09
2019-01-09T01:29:54.826Z,98805.98
2019-01-09T01:32:22.798Z,98802.95
2019-01-09T01:34:50.767Z,98805.20
2019-01-09T01:37:18.395Z,98807.53
2019-01-09T01:39:46.300Z,98815.79
2019-01-09T01:42:14.266Z,98812.13
2019-01-09T01:44:42.238Z,98815.55
2019-01-09T01:47:10.208Z,98813.29
2019-01-09T01:49:38.177Z,98810.38
2019-01-09T01:52:05.794Z,98825.14
2019-01-09T01:54:33.707Z,98816.75
2019-01-09T01:57:01.675Z,98808.80
2019-01-09T01:59:29.305Z,98813.69
2019-01-09T02:01:57.202Z,98818.50
2019-01-09T02:04:25.172Z,98809.11
2019-01-09T02:06:53.152Z,98824.63
2019-01-09T02:09:21.108Z,98816.72
2019-01-09T02:11:49.107Z,98823.28
2019-01-09T02:14:17.057Z,98823.48
2019-01-09T02:16:44.682Z,98827.34
2019-01-09T02:19:12.584Z,98827.34
2019-01-09T02:21:40.196Z,98826.67
2019-01-09T02:24:08.108Z,98816.92
2019-01-09T02:26:36.081Z,98830.13
2019-01-09T02:29:04.052Z,98821.42
2019-01-09T02:31:31.677Z,98817.00
2019-01-09T02:33:59.597Z,98823.38
2019-01-09T02:36:27.571Z,98828.73
2019-01-09T02:38:55.198Z,98826.27
2019-01-09T02:41:23.082Z,98824.67
2019-01-09T02:43:50.712Z,98829.98
2019-01-09T02:46:18.603Z,98826.50
2019-01-09T02:48:48.572Z,98832.09
2019-01-09T02:51:15.905Z,98833.64
2019-01-09T02:53:43.845Z,98833.80
2019-01-09T02:56:11.735Z,98825.73
2019-01-09T02:58:39.361Z,98823.62
2019-01-09T03:01:07.279Z,98827.21
2019-01-09T03:03:35.214Z,98821.47
2019-01-09T03:06:03.195Z,98819.80
2019-01-09T03:08:30.802Z,98824.39
2019-01-09T03:10:58.717Z,98822.45
2019-01-09T03:13:26.354Z,98827.30
2019-01-09T03:15:53.977Z,98827.02
2019-01-09T03:18:21.906Z,98826.50
2019-01-09T03:20:49.535Z,98828.36
2019-01-09T03:23:17.150Z,98824.14
2019-01-09T03:25:44.764Z,98826.01
2019-01-09T03:28:12.664Z,98820.72
2019-01-09T03:30:40.296Z,98828.95
2019-01-09T03:33:08.210Z,98822.94
2019-01-09T03:35:36.160Z,98820.71
2019-01-09T03:38:04.126Z,98821.67
2019-01-09T03:40:31.760Z,98823.62
2019-01-09T03:42:59.716Z,98832.97
2019-01-09T03:45:27.625Z,98825.80
2019-01-09T03:47:55.602Z,98823.55
2019-01-09T03:50:23.568Z,98822.14
2019-01-09T03:52:51.542Z,98834.04
2019-01-09T03:55:19.508Z,98831.38
2019-01-09T03:57:47.482Z,98834.72
2019-01-09T04:00:15.443Z,98831.66
2019-01-09T04:02:43.069Z,98831.18
2019-01-09T04:05:10.975Z,98837.34
2019-01-09T04:07:38.596Z,98833.84
2019-01-09T04:10:06.505Z,98831.91
2019-01-09T04:12:34.477Z,98827.54
2019-01-09T04:15:02.111Z,98831.71
2019-01-09T04:17:30.001Z,98836.61
2019-01-09T04:19:57.970Z,98835.66
2019-01-09T04:22:25.837Z,98836.25
2019-01-09T04:24:53.827Z,98835.79
2019-01-09T04:27:21.791Z,98833.30
2019-01-09T04:29:49.757Z,98842.28
2019-01-09T04:32:17.368Z,98845.64
2019-01-09T04:34:45.291Z,98844.16
2019-01-09T04:37:13.250Z,98849.44
2019-01-09T04:39:40.870Z,98846.45
2019-01-09T04:42:08.774Z,98854.79
2019-01-09T04:44:36.745Z,98842.81
2019-01-09T04:47:04.612Z,98854.80
2019-01-09T04:49:32.583Z,98845.23
2019-01-09T04:52:00.455Z,98859.22
2019-01-09T04:54:28.418Z,98855.01
2019-01-09T04:56:56.306Z,98846.55
2019-01-09T04:59:24.005Z,98847.42
2019-01-09T05:01:51.939Z,98855.80
2019-01-09T05:04:19.891Z,98846.89
2019-01-09T05:06:47.519Z,98861.09
2019-01-09T05:09:15.133Z,98857.55
2019-01-09T05:11:42.751Z,98862.92
2019-01-09T05:14:10.757Z,98869.69
2019-01-09T05:16:38.715Z,98868.13
2019-01-09T05:19:06.348Z,98870.66
2019-01-09T05:21:34.266Z,98871.55
2019-01-09T05:24:02.212Z,98867.91
2019-01-09T05:26:29.829Z,98876.28
2019-01-09T05:28:57.748Z,98878.56
2019-01-09T05:31:25.742Z,98877.34
2019-01-09T05:33:53.681Z,98874.32
2019-01-09T05:36:21.308Z,98878.35
2019-01-09T05:38:48.931Z,98882.22
2019-01-09T05:41:16.876Z,98879.27
2019-01-09T05:43:44.840Z,98891.68
2019-01-09T05:46:12.809Z,98886.12
2019-01-09T05:48:40.782Z,98890.14
2019-01-09T05:51:08.755Z,98891.68
2019-01-09T05:53:36.724Z,98907.88
2019-01-09T05:56:04.691Z,98898.30
2019-01-09T05:58:32.660Z,98902.78
2019-01-09T06:01:00.629Z,98904.31
2019-01-09T06:03:28.607Z,98913.62
2019-01-09T06:05:56.575Z,98906.64
2019-01-09T06:08:24.201Z,98910.72
2019-01-09T06:10:52.097Z,98913.66
2019-01-09T06:13:19.721Z,98921.64
2019-01-09T06:15:47.755Z,98915.02
2019-01-09T06:18:15.707Z,98914.75
2019-01-09T06:20:43.345Z,98917.61
2019-01-09T06:23:10.986Z,98919.70
2019-01-09T06:25:38.894Z,98925.94
2019-01-09T06:28:06.514Z,98926.20
2019-01-09T06:30:34.424Z,98928.61
2019-01-09T06:33:02.393Z,98931.91
2019-01-09T06:35:30.036Z,98934.45
2019-01-09T06:37:57.662Z,98941.08
2019-01-09T06:40:25.293Z,98932.52
2019-01-09T06:42:53.351Z,98940.28
2019-01-09T06:45:20.977Z,98946.82
2019-01-09T06:47:48.878Z,98951.64
2019-01-09T06:50:17.170Z,98958.48
2019-01-09T06:52:44.871Z,98953.61
2019-01-09T06:55:12.835Z,98959.80
2019-01-09T06:57:40.428Z,98960.94
2019-01-09T07:00:08.316Z,98966.20
2019-01-09T07:02:36.395Z,98968.17
2019-01-09T07:05:04.011Z,98974.45
2019-01-09T07:07:36.174Z,98981.94
2019-01-09T07:10:02.140Z,98979.27
2019-01-09T07:12:30.111Z,98976.59
2019-01-09T07:14:57.728Z,98986.11
2019-01-09T07:17:25.362Z,98987.08
2019-01-09T07:19:52.986Z,98984.84
2019-01-09T07:22:20.966Z,98988.09
2019-01-09T07:24:48.576Z,98992.16
2019-01-09T07:27:16.218Z,98995.33
2019-01-09T07:29:44.160Z,98996.59
2019-01-09T07:32:11.780Z,98995.16
2019-01-09T07:34:39.687Z,99001.20
2019-01-09T07:37:07.311Z,98999.45
2019-01-09T07:39:35.219Z,99014.71
2019-01-09T07:42:02.842Z,99005.33
2019-01-09T07:44:30.758Z,99007.39
2019-01-09T07:46:58.718Z,99013.66
2019-01-09T07:49:26.334Z,99010.41
2019-01-09T07:51:53.951Z,99007.81
2019-01-09T07:54:21.913Z,99013.78
2019-01-09T07:56:49.550Z,99020.54
2019-01-09T07:59:17.438Z,99015.36
2019-01-09T08:01:45.422Z,99017.86
2019-01-09T08:04:13.041Z,99024.13
2019-01-09T08:06:40.670Z,99019.52
2019-01-09T08:09:08.597Z,99032.69
2019-01-09T08:11:36.584Z,99028.56
2019-01-09T08:14:04.559Z,99032.38
2019-01-09T08:16:32.504Z,99035.32
2019-01-09T08:19:00.389Z,99034.13
2019-01-09T08:21:28.094Z,99045.89
2019-01-09T08:23:55.709Z,99037.38
2019-01-09T08:26:23.342Z,99039.70
2019-01-09T08:28:51.232Z,99043.44
2019-01-09T08:31:19.197Z,99040.66
2019-01-09T08:33:47.068Z,99055.27
2019-01-09T08:36:15.034Z,99052.08
2019-01-09T08:38:42.655Z,99066.19
2019-01-09T08:41:10.672Z,99061.66
2019-01-09T08:43:38.641Z,99064.97
2019-01-09T08:46:06.257Z,99068.25
2019-01-09T08:48:34.171Z,99070.77
2019-01-09T08:51:01.789Z,99075.46
2019-01-09T08:53:29.416Z,99075.77
2019-01-09T08:55:57.384Z,99075.77
2019-01-09T08:58:25.015Z,99077.20
2019-01-09T09:00:52.888Z,99084.84
2019-01-09T09:03:20.859Z,99085.91
2019-01-09T09:05:48.728Z,99088.53
2019-01-09T09:08:16.699Z,99092.44
2019-01-09T09:10:44.312Z,99095.20
2019-01-09T09:13:11.942Z,99094.09
2019-01-09T09:15:39.885Z,99091.61
2019-01-09T09:18:07.956Z,99094.58
2019-01-09T09:20:35.576Z,99096.93
2019-01-09T09:23:03.196Z,99092.83
2019-01-09T09:25:31.154Z,99098.06
2019-01-09T09:27:59.127Z,99102.03
2019-01-09T09:30:26.748Z,99105.84
2019-01-09T09:32:54.652Z,99098.39
2019-01-09T09:35:22.621Z,99103.39
2019-01-09T09:37:50.590Z,99106.42
2019-01-09T09:40:18.203Z,99101.00
2019-01-09T09:42:46.129Z,99095.98
2019-01-09T09:45:14.089Z,99096.28
2019-01-09T09:47:41.709Z,99103.91
2019-01-09T09:50:09.621Z,99105.83
2019-01-09T09:52:37.606Z,99096.28
2019-01-09T09:55:12.660Z,99103.61
2019-01-09T09:57:34.859Z,99105.19
2019-01-09T10:00:02.743Z,99107.05
2019-01-09T10:02:30.373Z,99111.48
2019-01-09T10:04:58.357Z,99116.81
2019-01-09T10:07:26.325Z,99117.26
2019-01-09T10:09:53.945Z,99116.19
2019-01-09T10:12:21.575Z,99130.55
2019-01-09T10:14:49.196Z,99123.62
2019-01-09T10:17:17.182Z,99121.33
2019-01-09T10:19:45.559Z,99123.31
2019-01-09T10:22:13.536Z,99125.37
2019-01-09T10:24:41.159Z,99125.13
2019-01-09T10:27:09.062Z,99129.42
2019-01-09T10:29:37.031Z,99124.44
2019-01-09T10:32:04.667Z,99129.05
2019-01-09T10:34:32.282Z,99133.88
2019-01-09T10:37:00.226Z,99128.91
2019-01-09T10:39:28.195Z,99130.63
2019-01-09T10:41:56.168Z,99129.42
2019-01-09T10:44:24.128Z,99132.05
2019-01-09T10:46:52.420Z,99135.95
2019-01-09T10:49:20.050Z,99138.72
2019-01-09T10:51:48.451Z,99140.96
2019-01-09T10:54:16.425Z,99141.61
2019-01-09T10:56:44.389Z,99136.27
2019-01-09T10:59:12.030Z,99137.79
2019-01-09T11:01:39.917Z,99140.14
2019-01-09T11:04:07.889Z,99135.39
2019-01-09T11:06:35.856Z,99139.99
2019-01-09T11:09:04.611Z,99140.62
2019-01-09T11:11:32.515Z,99140.48
2019-01-09T11:14:00.488Z,99129.28
2019-01-09T11:16:28.131Z,99135.41
2019-01-09T11:18:55.755Z,99139.51
2019-01-09T11:21:23.795Z,99138.97
2019-01-09T11:23:51.428Z,99141.28
2019-01-09T11:26:19.316Z,99140.01
2019-01-09T11:28:47.287Z,99146.08
2019-01-09T11:31:15.249Z,99141.78
2019-01-09T11:33:43.216Z,99143.53
2019-01-09T11:36:10.852Z,99145.26
2019-01-09T11:38:38.844Z,99147.17
2019-01-09T11:41:06.464Z,99154.02
2019-01-09T11:43:34.161Z,99143.55
2019-01-09T11:46:02.144Z,99152.75
2019-01-09T11:48:29.778Z,99145.50
2019-01-09T11:50:57.674Z,99150.53
2019-01-09T11:53:25.648Z,99139.64
2019-01-09T11:55:53.270Z,99157.93
2019-01-09T11:58:21.194Z,99155.30
2019-01-09T12:00:49.007Z,99156.33
2019-01-09T12:03:16.673Z,99163.16
2019-01-09T12:05:44.288Z,99162.30
2019-01-09T12:08:12.230Z,99168.80
2019-01-09T12:10:39.855Z,99167.28
2019-01-09T12:13:07.763Z,99167.70
2019-01-09T12:15:35.627Z,99161.81
2019-01-09T12:18:03.249Z,99174.61
2019-01-09T12:20:30.880Z,99170.16
2019-01-09T12:22:58.818Z,99173.42
2019-01-09T12:25:26.792Z,99175.15
2019-01-09T12:27:54.409Z,99173.82
2019-01-09T12:30:22.061Z,99179.20
2019-01-09T12:32:49.983Z,99185.17
2019-01-09T12:35:17.605Z,99187.56
2019-01-09T12:37:45.514Z,99200.13
2019-01-09T12:40:13.544Z,99204.73
2019-01-09T12:42:41.452Z,99200.37
2019-01-09T12:45:09.418Z,99215.54
2019-01-09T12:47:37.396Z,99201.85
2019-01-09T12:50:05.021Z,99215.94
2019-01-09T12:52:32.919Z,99215.69
2019-01-09T12:55:00.547Z,99221.36
2019-01-09T12:57:28.453Z,99224.05
2019-01-09T12:59:56.422Z,99225.71
2019-01-09T13:02:24.388Z,99227.14
2019-01-09T13:04:52.362Z,99223.27
2019-01-09T13:07:20.345Z,99228.56
2019-01-09T13:09:48.315Z,99233.20
2019-01-09T13:12:16.266Z,99239.07
2019-01-09T13:14:44.239Z,99245.09
2019-01-09T13:17:12.341Z,99246.06
2019-01-09T13:19:40.586Z,99249.73
2019-01-09T13:22:08.554Z,99256.09
2019-01-09T13:24:36.519Z,99253.84
2019-01-09T13:27:04.147Z,99260.54
2019-01-09T13:29:31.792Z,99266.56
2019-01-09T13:31:59.718Z,99256.00
2019-01-09T13:34:27.694Z,99266.57
2019-01-09T13:36:55.653Z,99266.91
2019-01-09T13:39:30.653Z,99270.33
2019-01-09T13:41:52.935Z,99273.02
2019-01-09T13:44:20.896Z,99276.05
2019-01-09T13:46:48.865Z,99269.69
2019-01-09T13:49:16.860Z,99276.75
2019-01-09T13:51:44.822Z,99275.63
2019-01-09T13:54:12.782Z,99273.71
2019-01-09T13:56:40.741Z,99282.31
2019-01-09T13:59:08.399Z,99278.11
2019-01-09T14:01:36.274Z,99281.69
2019-01-09T14:04:03.899Z,99278.17
2019-01-09T14:06:31.810Z,99283.34
2019-01-09T14:08:59.768Z,99284.53
2019-01-09T14:11:27.638Z,99286.44
2019-01-09T14:13:55.266Z,99288.58
2019-01-09T14:16:23.170Z,99296.70
2019-01-09T14:18:55.400Z,99297.43
2019-01-09T14:21:20.748Z,99302.67
2019-01-09T14:23:48.722Z,99308.70
2019-01-09T14:26:16.903Z,99309.67
2019-01-09T14:28:44.862Z,99312.76
2019-01-09T14:31:12.834Z,99309.13
2019-01-09T14:33:40.449Z,99320.58
2019-01-09T14:36:08.385Z,99320.34
2019-01-09T14:38:36.332Z,99324.45
2019-01-09T14:41:03.958Z,99330.19
2019-01-09T14:43:31.575Z,99338.84
2019-01-09T14:45:59.521Z,99331.94
2019-01-09T14:48:27.490Z,99341.79
2019-01-09T14:50:55.115Z,99352.94
2019-01-09T14:53:23.018Z,99340.85
2019-01-09T14:55:51.298Z,99346.48
2019-01-09T14:58:19.267Z,99356.61
2019-01-09T15:00:46.896Z,99360.19
2019-01-09T15:03:14.514Z,99361.85
2019-01-09T15:05:42.501Z,99358.67
2019-01-09T15:08:10.324Z,99366.30
2019-01-09T15:10:37.955Z,99368.70
2019-01-09T15:13:05.578Z,99380.31
2019-01-09T15:15:33.205Z,99382.52
2019-01-09T15:18:01.150Z,99376.80
2019-01-09T15:20:29.148Z,99380.70
2019-01-09T15:22:56.775Z,99383.89
2019-01-09T15:25:24.420Z,99381.83
2019-01-09T15:27:52.351Z,99388.34
2019-01-09T15:30:20.313Z,99396.85
2019-01-09T15:32:48.283Z,99397.40
2019-01-09T15:35:15.910Z,99398.61
2019-01-09T15:37:43.600Z,99395.58
2019-01-09T15:40:11.225Z,99399.95
2019-01-09T15:42:38.845Z,99403.61
2019-01-09T15:45:06.798Z,99411.80
2019-01-09T15:47:34.770Z,99415.61
2019-01-09T15:50:02.753Z,99413.25
2019-01-09T15:52:30.707Z,99420.25
2019-01-09T15:54:58.689Z,99425.01
2019-01-09T15:57:26.306Z,99424.06
2019-01-09T15:59:53.943Z,99428.67
2019-01-09T16:02:21.970Z,99434.08
2019-01-09T16:04:49.601Z,99434.56
2019-01-09T16:07:17.498Z,99445.08
2019-01-09T16:09:45.122Z,99446.48
2019-01-09T16:12:13.442Z,99451.34
2019-01-09T16:14:41.065Z,99447.63
2019-01-09T16:17:08.693Z,99453.50
2019-01-09T16:19:36.655Z,99451.73
2019-01-09T16:22:04.614Z,99457.45
2019-01-09T16:24:32.595Z,99453.59
2019-01-09T16:27:00.546Z,99465.11
2019-01-09T16:29:28.167Z,99462.56
2019-01-09T16:31:55.805Z,99467.28
2019-01-09T16:34:23.425Z,99471.44
2019-01-09T16:36:51.051Z,99468.30
2019-01-09T16:39:18.957Z,99475.80
2019-01-09T16:41:46.589Z,99471.84
2019-01-09T16:44:14.208Z,99474.92
2019-01-09T16:46:42.149Z,99492.11
2019-01-09T16:49:09.773Z,99487.00
2019-01-09T16:51:37.687Z,99481.92
2019-01-09T16:54:05.653Z,99488.02
2019-01-09T16:56:34.026Z,99491.45
2019-01-09T16:59:01.712Z,99493.45
2019-01-09T17:01:29.338Z,99495.17
2019-01-09T17:03:56.959Z,99509.68
2019-01-09T17:06:24.883Z,99505.84
2019-01-09T17:08:52.500Z,99510.33
2019-01-09T17:11:20.129Z,99508.28
2019-01-09T17:13:48.074Z,99509.68
2019-01-09T17:16:16.049Z,99517.04
2019-01-09T17:18:44.016Z,99527.85
2019-01-09T17:21:11.643Z,99529.41
2019-01-09T17:23:39.546Z,99530.30
2019-01-09T17:26:07.168Z,99540.59
2019-01-09T17:28:35.068Z,99540.19
2019-01-09T17:31:02.704Z,99547.09
2019-01-09T17:33:30.602Z,99544.68
2019-01-09T17:35:58.230Z,99550.34
2019-01-09T17:38:26.149Z,99554.84
2019-01-09T17:40:54.107Z,99560.27
2019-01-09T17:43:21.729Z,99559.22
2019-01-09T17:45:49.629Z,99566.63
2019-01-09T17:48:17.606Z,99569.33
2019-01-09T17:50:45.573Z,99572.66
2019-01-09T17:53:13.557Z,99575.17
2019-01-09T17:55:41.524Z,99578.73
2019-01-09T17:58:09.152Z,99580.11
2019-01-09T18:00:36.789Z,99582.81
2019-01-09T18:03:04.706Z,99586.30
2019-01-09T18:05:32.326Z,99593.97
2019-01-09T18:07:59.959Z,99598.48
2019-01-09T18:10:27.939Z,99598.38
2019-01-09T18:12:56.069Z,99602.61
2019-01-09T18:15:24.251Z,99606.92
2019-01-09T18:17:52.214Z,99608.29
2019-01-09T18:20:20.181Z,99617.71
2019-01-09T18:22:47.816Z,99615.48
2019-01-09T18:25:15.712Z,99620.25
2019-01-09T18:27:43.720Z,99618.49
2019-01-09T18:30:11.369Z,99623.29
2019-01-09T18:32:39.208Z,99624.61
2019-01-09T18:35:07.178Z,99627.64
2019-01-09T18:37:34.808Z,99629.30
2019-01-09T18:40:04.606Z,99642.59
2019-01-09T18:42:32.746Z,99647.84
2019-01-09T18:45:00.370Z,99649.94
2019-01-09T18:47:28.140Z,99645.30
2019-01-09T18:49:55.763Z,99660.28
2019-01-09T18:52:23.868Z,99655.19
2019-01-09T18:54:51.779Z,99667.14
2019-01-09T18:57:19.725Z,99670.51
2019-01-09T18:59:47.595Z,99671.34
2019-01-09T19:02:15.225Z,99681.80
2019-01-09T19:04:42.843Z,99684.85
2019-01-09T19:07:10.808Z,99691.04
2019-01-09T19:09:38.425Z,99696.58
2019-01-09T19:12:06.312Z,99698.14
2019-01-09T19:14:34.185Z,99698.56
2019-01-09T19:17:02.148Z,99702.77
2019-01-09T19:19:29.943Z,99703.44
2019-01-09T19:21:57.573Z,99706.59
2019-01-09T19:24:25.192Z,99720.44
2019-01-09T19:26:53.115Z,99720.64
2019-01-09T19:29:21.098Z,99725.07
2019-01-09T19:31:49.048Z,99737.03
2019-01-09T19:34:16.666Z,99734.20
2019-01-09T19:36:44.303Z,99737.85
2019-01-09T19:39:11.909Z,99740.80
2019-01-09T19:41:39.776Z,99751.14
2019-01-09T19:44:07.414Z,99758.73
2019-01-09T19:46:35.039Z,99760.39
2019-01-09T19:49:03.008Z,99764.92
2019-01-09T19:51:30.960Z,99767.59
2019-01-09T19:53:58.928Z,99775.27
2019-01-09T19:56:26.901Z,99778.88
2019-01-09T19:58:55.181Z,99774.78
2019-01-09T20:01:23.148Z,99784.07
2019-01-09T20:03:50.771Z,99788.67
2019-01-09T20:06:18.780Z,99799.52
2019-01-09T20:08:46.414Z,99797.30
2019-01-09T20:11:14.364Z,99799.17
2019-01-09T20:13:42.009Z,99803.49
2019-01-09T20:16:09.576Z,99803.10
2019-01-09T20:18:37.529Z,99811.23
2019-01-09T20:21:05.121Z,99813.39
2019-01-09T20:23:33.072Z,99813.07
2019-01-09T20:26:00.997Z,99823.90
2019-01-09T20:28:29.069Z,99818.87
2019-01-09T20:30:57.095Z,99819.94
2019-01-09T20:33:25.055Z,99830.28
2019-01-09T20:35:53.001Z,99841.08
2019-01-09T20:38:20.631Z,99838.88
2019-01-09T20:40:48.251Z,99845.13
2019-01-09T20:43:15.965Z,99846.34
2019-01-09T20:45:43.562Z,99853.23
2019-01-09T20:48:11.499Z,99850.38
2019-01-09T20:50:39.478Z,99854.58
2019-01-09T20:53:07.167Z,99852.81
2019-01-09T20:55:35.011Z,99860.45
2019-01-09T20:58:02.649Z,99863.00
2019-01-09T21:00:30.953Z,99873.39
2019-01-09T21:02:58.573Z,99880.50
2019-01-09T21:05:26.483Z,99881.38
2019-01-09T21:07:54.088Z,99889.87
2019-01-09T21:10:22.044Z,99895.06
2019-01-09T21:12:49.986Z,99894.14
2019-01-09T21:15:17.693Z,99901.05
2019-01-09T21:17:45.308Z,99895.95
2019-01-09T21:20:13.256Z,99903.63
2019-01-09T21:22:41.231Z,99911.52
2019-01-09T21:25:09.206Z,99907.02
2019-01-09T21:27:42.059Z,99907.52
2019-01-09T21:30:06.497Z,99913.20
2019-01-09T21:32:34.440Z,99919.16
2019-01-09T21:35:02.411Z,99917.28
2019-01-09T21:37:30.048Z,99917.10
2019-01-09T21:39:57.743Z,99929.44
2019-01-09T21:42:25.366Z,99929.52
2019-01-09T21:44:52.983Z,99936.98
2019-01-09T21:47:20.927Z,99938.64
2019-01-09T21:49:48.892Z,99940.80
2019-01-09T21:52:16.864Z,99936.94
2019-01-09T21:54:44.832Z,99941.58
2019-01-09T21:57:12.716Z,99950.39
2019-01-09T21:59:40.348Z,99951.41
2019-01-09T22:02:07.965Z,99956.40
2019-01-09T22:04:35.892Z,99964.36
2019-01-09T22:07:03.764Z,99967.80
2019-01-09T22:09:31.400Z,99973.73
2019-01-09T22:12:02.502Z,99975.78
2019-01-09T22:14:28.620Z,99989.20
2019-01-09T22:16:56.634Z,99987.14
2019-01-09T22:19:24.193Z,99990.97
2019-01-09T22:21:51.814Z,99995.57
2019-01-09T22:24:19.451Z,99993.41
2019-01-09T22:26:47.062Z,99999.99
2019-01-09T22:29:14.686Z,100001.94
2019-01-09T22:31:42.313Z,100002.86
2019-01-09T22:34:09.965Z,100004.59
2019-01-09T22:36:37.866Z,100012.38
2019-01-09T22:39:05.500Z,100017.33
2019-01-09T22:41:33.192Z,100014.52
2019-01-09T22:44:01.153Z,100019.73
2019-01-09T22:46:30.846Z,100022.06
2019-01-09T22:48:58.106Z,100023.63
2019-01-09T22:51:25.995Z,100026.17
2019-01-09T22:53:53.957Z,100025.50
2019-01-09T22:56:21.925Z,100024.81
2019-01-09T22:58:49.915Z,100026.41
2019-01-09T23:01:17.540Z,100032.17
2019-01-09T23:03:45.526Z,100033.13
2019-01-09T23:06:13.152Z,100036.58
2019-01-09T23:08:40.791Z,100041.77
2019-01-09T23:11:08.739Z,100040.09
2019-01-09T23:13:36.689Z,100045.59
2019-01-09T23:16:04.660Z,100047.53
2019-01-09T23:18:32.294Z,100047.02
2019-01-09T23:21:00.186Z,100056.82
2019-01-09T23:23:27.818Z,100048.64
2019-01-09T23:25:55.715Z,100057.05
2019-01-09T23:28:23.688Z,100058.91
2019-01-09T23:30:51.656Z,100062.64
2019-01-09T23:33:19.290Z,100065.97
2019-01-09T23:35:47.187Z,100065.11
2019-01-09T23:38:14.819Z,100073.98
2019-01-09T23:40:42.719Z,100068.52
2019-01-09T23:43:10.368Z,100072.05
2019-01-09T23:45:37.998Z,100079.29
2019-01-09T23:48:05.911Z,100079.88
2019-01-09T23:50:33.539Z,100087.44
2019-01-09T23:53:01.172Z,100085.58
2019-01-09T23:55:29.102Z,100084.48
2019-01-09T23:57:56.725Z,100090.67
